sensor_id;sensor_type;location;lat;lon;timestamp;pressure;altitude;pressure_sealevel;temperature;humidity
6506;BME280;3286;49.858;8.768;2023-05-01T00:01:45;99274.31;;;12.86;49.04
6506;BME280;3286;49.858;8.768;2023-05-01T00:04:13;99268.94;;;12.61;49.57
6506;BME280;3286;49.858;8.768;2023-05-01T00:06:39;99263.03;;;12.84;48.90
6506;BME280;3286;49.858;8.768;2023-05-01T00:09:06;99265.88;;;12.99;48.36
6506;BME280;3286;49.858;8.768;2023-05-01T00:11:33;99267.28;;;12.60;49.54
6506;BME280;3286;49.858;8.768;2023-05-01T00:14:01;99263.66;;;12.61;49.50
6506;BME280;3286;49.858;8.768;2023-05-01T00:16:28;99261.53;;;12.65;49.45
6506;BME280;3286;49.858;8.768;2023-05-01T00:18:54;99261.88;;;12.79;49.07
6506;BME280;3286;49.858;8.768;2023-05-01T00:21:23;99256.75;;;12.77;49.00
6506;BME280;3286;49.858;8.768;2023-05-01T00:23:49;99252.72;;;12.56;49.74
6506;BME280;3286;49.858;8.768;2023-05-01T00:26:17;99248.19;;;12.40;50.35
6506;BME280;3286;49.858;8.768;2023-05-01T00:28:44;99243.16;;;12.72;49.50
6506;BME280;3286;49.858;8.768;2023-05-01T00:31:10;99246.28;;;12.67;49.83
6506;BME280;3286;49.858;8.768;2023-05-01T00:33:37;99235.56;;;12.26;50.92
6506;BME280;3286;49.858;8.768;2023-05-01T00:36:05;99234.22;;;12.13;51.29
6506;BME280;3286;49.858;8.768;2023-05-01T00:38:33;99238.78;;;11.77;52.46
6506;BME280;3286;49.858;8.768;2023-05-01T00:40:59;99229.50;;;11.72;52.33
6506;BME280;3286;49.858;8.768;2023-05-01T00:43:26;99236.69;;;11.80;52.30
6506;BME280;3286;49.858;8.768;2023-05-01T00:45:52;99233.09;;;12.24;51.52
6506;BME280;3286;49.858;8.768;2023-05-01T00:48:19;99225.31;;;12.23;51.90
6506;BME280;3286;49.858;8.768;2023-05-01T00:50:46;99224.97;;;12.26;51.46
6506;BME280;3286;49.858;8.768;2023-05-01T00:53:14;99220.88;;;12.31;51.48
6506;BME280;3286;49.858;8.768;2023-05-01T00:55:42;99213.25;;;12.37;51.40
6506;BME280;3286;49.858;8.768;2023-05-01T00:58:09;99214.03;;;12.12;51.72
6506;BME280;3286;49.858;8.768;2023-05-01T01:00:36;99216.25;;;12.42;51.09
6506;BME280;3286;49.858;8.768;2023-05-01T01:03:03;99207.19;;;12.01;52.06
6506;BME280;3286;49.858;8.768;2023-05-01T01:05:31;99205.25;;;11.85;52.67
6506;BME280;3286;49.858;8.768;2023-05-01T01:08:04;99198.84;;;12.39;51.22
6506;BME280;3286;49.858;8.768;2023-05-01T01:10:39;99193.66;;;12.21;51.34
6506;BME280;3286;49.858;8.768;2023-05-01T01:13:12;99193.06;;;12.27;50.48
6506;BME280;3286;49.858;8.768;2023-05-01T01:15:44;99190.94;;;12.48;50.62
6506;BME280;3286;49.858;8.768;2023-05-01T01:18:18;99184.47;;;12.50;50.67
6506;BME280;3286;49.858;8.768;2023-05-01T01:20:51;99192.72;;;12.30;51.36
6506;BME280;3286;49.858;8.768;2023-05-01T01:23:46;99178.63;;;12.30;51.26
6506;BME280;3286;49.858;8.768;2023-05-01T01:26:26;99177.50;;;12.32;50.97
6506;BME280;3286;49.858;8.768;2023-05-01T01:29:24;99181.50;;;12.45;49.79
6506;BME280;3286;49.858;8.768;2023-05-01T01:32:09;99172.72;;;12.61;48.70
6506;BME280;3286;49.858;8.768;2023-05-01T01:34:43;99174.22;;;12.55;50.00
6506;BME280;3286;49.858;8.768;2023-05-01T01:37:13;99176.56;;;12.83;49.05
6506;BME280;3286;49.858;8.768;2023-05-01T01:39:45;99176.53;;;13.00;49.18
6506;BME280;3286;49.858;8.768;2023-05-01T01:42:18;99171.56;;;12.47;49.77
6506;BME280;3286;49.858;8.768;2023-05-01T01:44:48;99177.84;;;12.46;50.04
6506;BME280;3286;49.858;8.768;2023-05-01T01:47:16;99170.22;;;12.35;50.82
6506;BME280;3286;49.858;8.768;2023-05-01T01:49:48;99165.84;;;12.17;51.18
6506;BME280;3286;49.858;8.768;2023-05-01T01:52:17;99169.75;;;12.48;49.91
6506;BME280;3286;49.858;8.768;2023-05-01T01:54:49;99169.41;;;12.51;49.55
6506;BME280;3286;49.858;8.768;2023-05-01T01:57:18;99164.59;;;12.46;48.45
6506;BME280;3286;49.858;8.768;2023-05-01T01:59:47;99160.81;;;12.57;48.95
6506;BME280;3286;49.858;8.768;2023-05-01T02:02:18;99160.47;;;12.52;48.11
6506;BME280;3286;49.858;8.768;2023-05-01T02:04:47;99154.00;;;12.46;46.98
6506;BME280;3286;49.858;8.768;2023-05-01T02:07:15;99152.63;;;12.17;47.15
6506;BME280;3286;49.858;8.768;2023-05-01T02:09:43;99149.03;;;12.51;46.97
6506;BME280;3286;49.858;8.768;2023-05-01T02:12:11;99143.31;;;12.05;47.37
6506;BME280;3286;49.858;8.768;2023-05-01T02:14:41;99146.84;;;12.22;49.64
6506;BME280;3286;49.858;8.768;2023-05-01T02:17:08;99141.94;;;12.60;47.83
6506;BME280;3286;49.858;8.768;2023-05-01T02:19:37;99147.03;;;12.45;48.66
6506;BME280;3286;49.858;8.768;2023-05-01T02:22:06;99149.88;;;12.60;47.86
6506;BME280;3286;49.858;8.768;2023-05-01T02:24:34;99150.53;;;12.45;48.72
6506;BME280;3286;49.858;8.768;2023-05-01T02:27:07;99144.06;;;12.56;47.88
6506;BME280;3286;49.858;8.768;2023-05-01T02:29:36;99152.47;;;12.19;47.48
6506;BME280;3286;49.858;8.768;2023-05-01T02:32:03;99153.84;;;12.64;46.65
6506;BME280;3286;49.858;8.768;2023-05-01T02:34:33;99145.38;;;12.44;46.71
6506;BME280;3286;49.858;8.768;2023-05-01T02:37:00;99140.78;;;12.71;45.57
6506;BME280;3286;49.858;8.768;2023-05-01T02:39:28;99149.19;;;12.41;46.13
6506;BME280;3286;49.858;8.768;2023-05-01T02:41:56;99140.78;;;11.95;47.30
6506;BME280;3286;49.858;8.768;2023-05-01T02:44:26;99134.75;;;11.68;47.60
6506;BME280;3286;49.858;8.768;2023-05-01T02:46:55;99131.44;;;11.74;47.74
6506;BME280;3286;49.858;8.768;2023-05-01T02:49:22;99125.56;;;11.97;47.19
6506;BME280;3286;49.858;8.768;2023-05-01T02:51:49;99130.63;;;12.25;46.88
6506;BME280;3286;49.858;8.768;2023-05-01T02:54:16;99121.53;;;12.27;46.63
6506;BME280;3286;49.858;8.768;2023-05-01T02:56:44;99117.75;;;12.46;46.28
6506;BME280;3286;49.858;8.768;2023-05-01T02:59:11;99111.28;;;12.49;45.77
6506;BME280;3286;49.858;8.768;2023-05-01T03:01:38;99116.06;;;12.95;47.07
6506;BME280;3286;49.858;8.768;2023-05-01T03:04:05;99115.56;;;12.92;47.86
6506;BME280;3286;49.858;8.768;2023-05-01T03:06:31;99117.25;;;12.51;48.99
6506;BME280;3286;49.858;8.768;2023-05-01T03:08:58;99120.72;;;12.60;48.56
6506;BME280;3286;49.858;8.768;2023-05-01T03:11:25;99117.72;;;12.38;48.19
6506;BME280;3286;49.858;8.768;2023-05-01T03:13:53;99122.34;;;12.36;47.98
6506;BME280;3286;49.858;8.768;2023-05-01T03:16:20;99118.72;;;12.29;48.41
6506;BME280;3286;49.858;8.768;2023-05-01T03:18:47;99117.38;;;12.08;48.77
6506;BME280;3286;49.858;8.768;2023-05-01T03:21:13;99118.19;;;12.17;48.79
6506;BME280;3286;49.858;8.768;2023-05-01T03:23:40;99109.25;;;12.10;48.65
6506;BME280;3286;49.858;8.768;2023-05-01T03:26:07;99122.47;;;12.01;49.63
6506;BME280;3286;49.858;8.768;2023-05-01T03:28:33;99119.13;;;11.99;49.98
6506;BME280;3286;49.858;8.768;2023-05-01T03:31:01;99115.13;;;11.87;51.06
6506;BME280;3286;49.858;8.768;2023-05-01T03:33:28;99120.59;;;11.51;51.26
6506;BME280;3286;49.858;8.768;2023-05-01T03:35:59;99111.03;;;12.01;50.23
6506;BME280;3286;49.858;8.768;2023-05-01T03:38:28;99110.28;;;11.74;50.03
6506;BME280;3286;49.858;8.768;2023-05-01T03:40:54;99108.31;;;11.84;50.33
6506;BME280;3286;49.858;8.768;2023-05-01T03:43:21;99107.50;;;11.84;50.05
6506;BME280;3286;49.858;8.768;2023-05-01T03:45:48;99113.91;;;11.73;50.34
6506;BME280;3286;49.858;8.768;2023-05-01T03:48:16;99115.28;;;11.16;51.73
6506;BME280;3286;49.858;8.768;2023-05-01T03:50:43;99108.50;;;11.48;50.81
6506;BME280;3286;49.858;8.768;2023-05-01T03:53:10;99107.69;;;11.48;51.27
6506;BME280;3286;49.858;8.768;2023-05-01T03:55:37;99107.88;;;11.54;50.95
6506;BME280;3286;49.858;8.768;2023-05-01T03:58:04;99105.28;;;11.63;51.60
6506;BME280;3286;49.858;8.768;2023-05-01T04:00:31;99103.72;;;11.43;51.23
6506;BME280;3286;49.858;8.768;2023-05-01T04:02:58;99100.72;;;11.81;50.83
6506;BME280;3286;49.858;8.768;2023-05-01T04:05:26;99105.31;;;11.71;50.67
6506;BME280;3286;49.858;8.768;2023-05-01T04:07:53;99101.44;;;11.57;51.46
6506;BME280;3286;49.858;8.768;2023-05-01T04:10:19;99093.50;;;11.57;51.16
6506;BME280;3286;49.858;8.768;2023-05-01T04:12:46;99099.19;;;11.70;51.41
6506;BME280;3286;49.858;8.768;2023-05-01T04:15:12;99105.31;;;11.71;51.07
6506;BME280;3286;49.858;8.768;2023-05-01T04:17:39;99103.19;;;11.83;50.65
6506;BME280;3286;49.858;8.768;2023-05-01T04:20:08;99095.41;;;11.81;50.34
6506;BME280;3286;49.858;8.768;2023-05-01T04:22:37;99091.91;;;11.81;51.24
6506;BME280;3286;49.858;8.768;2023-05-01T04:25:04;99106.19;;;11.88;51.45
6506;BME280;3286;49.858;8.768;2023-05-01T04:27:31;99099.94;;;11.54;52.26
6506;BME280;3286;49.858;8.768;2023-05-01T04:29:58;99103.09;;;11.58;51.74
6506;BME280;3286;49.858;8.768;2023-05-01T04:32:24;99095.66;;;11.62;51.75
6506;BME280;3286;49.858;8.768;2023-05-01T04:34:51;99096.03;;;11.67;52.37
6506;BME280;3286;49.858;8.768;2023-05-01T04:37:18;99101.81;;;12.05;51.28
6506;BME280;3286;49.858;8.768;2023-05-01T04:39:46;99101.78;;;11.62;52.85
6506;BME280;3286;49.858;8.768;2023-05-01T04:42:12;99101.78;;;11.54;53.33
6506;BME280;3286;49.858;8.768;2023-05-01T04:44:39;99105.56;;;11.59;52.71
6506;BME280;3286;49.858;8.768;2023-05-01T04:47:05;99105.31;;;11.71;52.98
6506;BME280;3286;49.858;8.768;2023-05-01T04:49:32;99108.13;;;11.78;52.70
6506;BME280;3286;49.858;8.768;2023-05-01T04:51:59;99105.69;;;11.93;52.21
6506;BME280;3286;49.858;8.768;2023-05-01T04:54:25;99097.94;;;11.91;52.94
6506;BME280;3286;49.858;8.768;2023-05-01T04:56:53;99101.84;;;11.79;52.95
6506;BME280;3286;49.858;8.768;2023-05-01T04:59:20;99107.25;;;12.12;51.84
6506;BME280;3286;49.858;8.768;2023-05-01T05:01:46;99108.00;;;11.96;51.13
6506;BME280;3286;49.858;8.768;2023-05-01T05:04:13;99097.69;;;12.27;50.92
6506;BME280;3286;49.858;8.768;2023-05-01T05:06:40;99086.94;;;12.37;50.41
6506;BME280;3286;49.858;8.768;2023-05-01T05:09:06;99098.84;;;12.16;51.77
6506;BME280;3286;49.858;8.768;2023-05-01T05:11:33;99094.72;;;12.30;51.75
6506;BME280;3286;49.858;8.768;2023-05-01T05:14:01;99099.03;;;12.40;51.13
6506;BME280;3286;49.858;8.768;2023-05-01T05:16:28;99085.59;;;12.74;50.47
6506;BME280;3286;49.858;8.768;2023-05-01T05:18:55;99095.53;;;12.39;51.66
6506;BME280;3286;49.858;8.768;2023-05-01T05:21:22;99093.88;;;12.38;51.29
6506;BME280;3286;49.858;8.768;2023-05-01T05:23:49;99097.53;;;12.62;50.83
6506;BME280;3286;49.858;8.768;2023-05-01T05:26:16;99088.59;;;12.88;50.42
6506;BME280;3286;49.858;8.768;2023-05-01T05:28:42;99093.53;;;12.83;50.37
6506;BME280;3286;49.858;8.768;2023-05-01T05:31:10;99090.59;;;12.53;50.86
6506;BME280;3286;49.858;8.768;2023-05-01T05:33:37;99093.88;;;12.96;49.66
6506;BME280;3286;49.858;8.768;2023-05-01T05:36:04;99086.03;;;13.11;49.60
6506;BME280;3286;49.858;8.768;2023-05-01T05:38:30;99092.44;;;13.33;48.88
6506;BME280;3286;49.858;8.768;2023-05-01T05:40:57;99092.41;;;13.42;48.76
6506;BME280;3286;49.858;8.768;2023-05-01T05:43:25;99089.25;;;13.38;48.46
6506;BME280;3286;49.858;8.768;2023-05-01T05:45:55;99087.41;;;13.55;48.22
6506;BME280;3286;49.858;8.768;2023-05-01T05:48:23;99082.59;;;13.59;47.71
6506;BME280;3286;49.858;8.768;2023-05-01T05:50:50;99089.00;;;13.73;47.43
6506;BME280;3286;49.858;8.768;2023-05-01T05:53:17;99083.69;;;13.73;47.04
6506;BME280;3286;49.858;8.768;2023-05-01T05:55:45;99077.13;;;13.84;47.74
6506;BME280;3286;49.858;8.768;2023-05-01T05:58:12;99080.59;;;13.93;47.78
6506;BME280;3286;49.858;8.768;2023-05-01T06:00:44;99077.47;;;13.89;47.33
6506;BME280;3286;49.858;8.768;2023-05-01T06:03:11;99078.59;;;13.95;47.14
6506;BME280;3286;49.858;8.768;2023-05-01T06:05:39;99080.75;;;13.68;47.04
6506;BME280;3286;49.858;8.768;2023-05-01T06:08:06;99077.84;;;13.77;46.59
6506;BME280;3286;49.858;8.768;2023-05-01T06:10:34;99083.16;;;14.09;47.02
6506;BME280;3286;49.858;8.768;2023-05-01T06:13:01;99077.13;;;14.39;46.05
6506;BME280;3286;49.858;8.768;2023-05-01T06:15:28;99068.06;;;14.71;47.58
6506;BME280;3286;49.858;8.768;2023-05-01T06:17:55;99067.72;;;14.89;45.35
6506;BME280;3286;49.858;8.768;2023-05-01T06:20:21;99067.13;;;14.64;46.05
6506;BME280;3286;49.858;8.768;2023-05-01T06:22:49;99066.47;;;15.00;45.09
6506;BME280;3286;49.858;8.768;2023-05-01T06:25:16;99064.78;;;15.29;44.21
6506;BME280;3286;49.858;8.768;2023-05-01T06:27:43;99058.94;;;15.34;42.85
6506;BME280;3286;49.858;8.768;2023-05-01T06:30:10;99065.16;;;14.81;43.75
6506;BME280;3286;49.858;8.768;2023-05-01T06:32:37;99060.94;;;14.25;44.24
6506;BME280;3286;49.858;8.768;2023-05-01T06:35:04;99061.16;;;14.62;43.86
6506;BME280;3286;49.858;8.768;2023-05-01T06:37:31;99057.94;;;14.90;43.16
6506;BME280;3286;49.858;8.768;2023-05-01T06:39:59;99058.63;;;14.84;43.94
6506;BME280;3286;49.858;8.768;2023-05-01T06:42:25;99058.56;;;15.22;42.33
6506;BME280;3286;49.858;8.768;2023-05-01T06:44:52;99063.44;;;14.03;44.03
6506;BME280;3286;49.858;8.768;2023-05-01T06:47:19;99054.53;;;14.81;43.13
6506;BME280;3286;49.858;8.768;2023-05-01T06:49:46;99054.47;;;15.19;42.13
6506;BME280;3286;49.858;8.768;2023-05-01T06:52:13;99056.28;;;15.04;41.21
6506;BME280;3286;49.858;8.768;2023-05-01T06:54:39;99059.13;;;15.02;41.53
6506;BME280;3286;49.858;8.768;2023-05-01T06:57:08;99061.25;;;14.92;42.06
6506;BME280;3286;49.858;8.768;2023-05-01T06:59:34;99058.53;;;15.67;40.89
6506;BME280;3286;49.858;8.768;2023-05-01T07:02:01;99066.34;;;14.94;42.06
6506;BME280;3286;49.858;8.768;2023-05-01T07:04:27;99068.41;;;15.21;42.06
6506;BME280;3286;49.858;8.768;2023-05-01T07:06:54;99062.31;;;15.43;40.73
6506;BME280;3286;49.858;8.768;2023-05-01T07:09:20;99053.75;;;15.62;40.91
6506;BME280;3286;49.858;8.768;2023-05-01T07:11:47;99059.06;;;15.62;41.31
6506;BME280;3286;49.858;8.768;2023-05-01T07:14:15;99064.53;;;15.09;42.67
6506;BME280;3286;49.858;8.768;2023-05-01T07:16:42;99057.59;;;15.75;40.19
6506;BME280;3286;49.858;8.768;2023-05-01T07:19:09;99057.38;;;15.25;42.50
6506;BME280;3286;49.858;8.768;2023-05-01T07:21:37;99057.16;;;15.56;41.77
6506;BME280;3286;49.858;8.768;2023-05-01T07:24:04;99053.38;;;16.24;40.40
6506;BME280;3286;49.858;8.768;2023-05-01T07:26:31;99047.22;;;16.02;40.53
6506;BME280;3286;49.858;8.768;2023-05-01T07:28:58;99054.06;;;15.53;40.88
6506;BME280;3286;49.858;8.768;2023-05-01T07:31:26;99048.81;;;15.44;40.90
6506;BME280;3286;49.858;8.768;2023-05-01T07:33:52;99054.47;;;15.71;39.92
6506;BME280;3286;49.858;8.768;2023-05-01T07:36:19;99054.16;;;16.40;39.82
6506;BME280;3286;49.858;8.768;2023-05-01T07:38:46;99050.34;;;17.06;38.52
6506;BME280;3286;49.858;8.768;2023-05-01T07:41:13;99051.19;;;17.06;37.93
6506;BME280;3286;49.858;8.768;2023-05-01T07:43:40;99044.31;;;17.26;38.14
6506;BME280;3286;49.858;8.768;2023-05-01T07:46:06;99048.56;;;17.62;37.73
6506;BME280;3286;49.858;8.768;2023-05-01T07:48:34;99048.72;;;18.29;36.25
6506;BME280;3286;49.858;8.768;2023-05-01T07:51:02;99044.66;;;17.58;38.45
6506;BME280;3286;49.858;8.768;2023-05-01T07:53:29;99045.44;;;18.41;36.05
6506;BME280;3286;49.858;8.768;2023-05-01T07:56:03;99051.63;;;18.28;35.73
6506;BME280;3286;49.858;8.768;2023-05-01T07:58:30;99049.88;;;18.00;36.34
6506;BME280;3286;49.858;8.768;2023-05-01T08:00:57;99057.75;;;17.46;36.80
6506;BME280;3286;49.858;8.768;2023-05-01T08:03:23;99052.88;;;17.14;38.15
6506;BME280;3286;49.858;8.768;2023-05-01T08:05:51;99051.75;;;17.99;36.78
6506;BME280;3286;49.858;8.768;2023-05-01T08:08:18;99047.97;;;17.73;37.23
6506;BME280;3286;49.858;8.768;2023-05-01T08:10:45;99046.38;;;17.92;36.79
6506;BME280;3286;49.858;8.768;2023-05-01T08:13:12;99048.00;;;17.80;36.84
6506;BME280;3286;49.858;8.768;2023-05-01T08:15:39;99048.72;;;18.22;35.65
6506;BME280;3286;49.858;8.768;2023-05-01T08:18:07;99048.94;;;18.61;35.60
6506;BME280;3286;49.858;8.768;2023-05-01T08:20:34;99043.50;;;17.87;36.92
6506;BME280;3286;49.858;8.768;2023-05-01T08:23:02;99041.13;;;18.33;36.47
6506;BME280;3286;49.858;8.768;2023-05-01T08:25:29;99044.41;;;18.55;35.56
6506;BME280;3286;49.858;8.768;2023-05-01T08:27:56;99045.03;;;18.50;35.49
6506;BME280;3286;49.858;8.768;2023-05-01T08:30:23;99041.53;;;18.16;35.45
6506;BME280;3286;49.858;8.768;2023-05-01T08:32:50;99048.06;;;18.07;36.18
6506;BME280;3286;49.858;8.768;2023-05-01T08:35:17;99040.69;;;18.76;35.72
6506;BME280;3286;49.858;8.768;2023-05-01T08:37:43;99037.53;;;17.85;36.49
6506;BME280;3286;49.858;8.768;2023-05-01T08:40:13;99038.78;;;17.89;36.68
6506;BME280;3286;49.858;8.768;2023-05-01T08:42:40;99039.28;;;17.51;36.44
6506;BME280;3286;49.858;8.768;2023-05-01T08:45:08;99037.59;;;18.05;36.25
6506;BME280;3286;49.858;8.768;2023-05-01T08:47:35;99031.06;;;17.59;38.17
6506;BME280;3286;49.858;8.768;2023-05-01T08:50:03;99036.81;;;18.18;37.63
6506;BME280;3286;49.858;8.768;2023-05-01T08:52:30;99036.28;;;17.88;36.64
6506;BME280;3286;49.858;8.768;2023-05-01T08:54:58;99030.00;;;18.29;37.15
6506;BME280;3286;49.858;8.768;2023-05-01T08:57:28;99033.44;;;19.10;35.69
6506;BME280;3286;49.858;8.768;2023-05-01T08:59:56;99034.06;;;17.98;37.82
6506;BME280;3286;49.858;8.768;2023-05-01T09:02:25;99030.00;;;18.83;36.09
6506;BME280;3286;49.858;8.768;2023-05-01T09:04:53;99025.47;;;18.63;36.24
6506;BME280;3286;49.858;8.768;2023-05-01T09:07:20;99032.66;;;18.16;36.72
6506;BME280;3286;49.858;8.768;2023-05-01T09:09:46;99033.44;;;17.96;36.32
6506;BME280;3286;49.858;8.768;2023-05-01T09:12:19;99032.66;;;18.83;36.44
6506;BME280;3286;49.858;8.768;2023-05-01T09:14:49;99035.16;;;18.51;35.85
6506;BME280;3286;49.858;8.768;2023-05-01T09:17:16;99039.91;;;18.49;36.40
6506;BME280;3286;49.858;8.768;2023-05-01T09:19:42;99029.75;;;18.85;36.46
6506;BME280;3286;49.858;8.768;2023-05-01T09:22:09;99027.44;;;19.29;35.48
6506;BME280;3286;49.858;8.768;2023-05-01T09:24:36;99027.94;;;18.58;35.27
6506;BME280;3286;49.858;8.768;2023-05-01T09:27:02;99039.41;;;17.98;37.00
6506;BME280;3286;49.858;8.768;2023-05-01T09:29:39;99029.41;;;18.41;36.07
6506;BME280;3286;49.858;8.768;2023-05-01T09:32:16;99020.19;;;19.36;34.33
6506;BME280;3286;49.858;8.768;2023-05-01T09:34:45;99028.47;;;19.21;35.51
6506;BME280;3286;49.858;8.768;2023-05-01T09:37:23;99022.44;;;19.39;34.04
6506;BME280;3286;49.858;8.768;2023-05-01T09:40:01;99027.69;;;18.87;35.00
6506;BME280;3286;49.858;8.768;2023-05-01T09:42:28;99018.81;;;19.13;34.98
6506;BME280;3286;49.858;8.768;2023-05-01T09:44:55;99018.22;;;19.04;36.02
6506;BME280;3286;49.858;8.768;2023-05-01T09:47:23;99019.66;;;18.87;36.61
6506;BME280;3286;49.858;8.768;2023-05-01T09:49:54;99013.53;;;19.52;35.53
6506;BME280;3286;49.858;8.768;2023-05-01T09:52:21;99016.41;;;18.78;36.56
6506;BME280;3286;49.858;8.768;2023-05-01T09:54:48;99009.19;;;19.51;34.89
6506;BME280;3286;49.858;8.768;2023-05-01T09:57:14;99023.22;;;18.27;36.94
6506;BME280;3286;49.858;8.768;2023-05-01T09:59:41;99025.56;;;17.74;36.86
6506;BME280;3286;49.858;8.768;2023-05-01T10:02:28;99012.72;;;18.52;35.57
6506;BME280;3286;49.858;8.768;2023-05-01T10:04:57;99018.88;;;18.73;35.53
6506;BME280;3286;49.858;8.768;2023-05-01T10:07:24;99011.56;;;19.27;35.21
6506;BME280;3286;49.858;8.768;2023-05-01T10:09:51;99021.34;;;17.38;37.54
6506;BME280;3286;49.858;8.768;2023-05-01T10:12:22;99017.66;;;18.01;36.37
6506;BME280;3286;49.858;8.768;2023-05-01T10:14:51;99029.94;;;17.33;37.01
6506;BME280;3286;49.858;8.768;2023-05-01T10:17:18;99027.16;;;17.55;36.64
6506;BME280;3286;49.858;8.768;2023-05-01T10:19:46;99023.75;;;17.88;35.56
6506;BME280;3286;49.858;8.768;2023-05-01T10:22:14;99020.31;;;19.02;34.71
6506;BME280;3286;49.858;8.768;2023-05-01T10:24:42;99022.81;;;18.77;35.26
6506;BME280;3286;49.858;8.768;2023-05-01T10:27:11;99021.81;;;17.06;37.16
6506;BME280;3286;49.858;8.768;2023-05-01T10:29:39;99019.72;;;18.26;36.14
6506;BME280;3286;49.858;8.768;2023-05-01T10:32:06;99015.00;;;18.15;35.86
6506;BME280;3286;49.858;8.768;2023-05-01T10:34:37;99011.91;;;18.58;36.13
6506;BME280;3286;49.858;8.768;2023-05-01T10:37:10;99016.41;;;18.71;35.93
6506;BME280;3286;49.858;8.768;2023-05-01T10:39:38;99014.38;;;19.91;34.65
6506;BME280;3286;49.858;8.768;2023-05-01T10:42:06;99010.03;;;20.22;34.30
6506;BME280;3286;49.858;8.768;2023-05-01T10:44:35;99011.84;;;19.96;34.06
6506;BME280;3286;49.858;8.768;2023-05-01T10:50:06;99002.53;;;19.67;34.24
6506;BME280;3286;49.858;8.768;2023-05-01T10:55:35;99006.88;;;20.00;34.61
6506;BME280;3286;49.858;8.768;2023-05-01T10:58:02;99001.63;;;20.12;33.32
6506;BME280;3286;49.858;8.768;2023-05-01T11:00:29;99000.75;;;20.18;33.00
6506;BME280;3286;49.858;8.768;2023-05-01T11:03:36;98990.50;;;21.03;31.74
6506;BME280;3286;49.858;8.768;2023-05-01T11:06:05;98997.50;;;21.23;30.60
6506;BME280;3286;49.858;8.768;2023-05-01T11:08:32;98994.72;;;21.11;31.11
6506;BME280;3286;49.858;8.768;2023-05-01T11:14:01;98989.88;;;20.82;31.97
6506;BME280;3286;49.858;8.768;2023-05-01T11:16:44;98999.13;;;20.87;32.85
6506;BME280;3286;49.858;8.768;2023-05-01T11:19:45;98986.28;;;21.45;31.48
6506;BME280;3286;49.858;8.768;2023-05-01T11:22:15;98984.19;;;21.77;32.40
6506;BME280;3286;49.858;8.768;2023-05-01T11:24:42;98976.81;;;21.73;30.99
6506;BME280;3286;49.858;8.768;2023-05-01T11:27:15;98981.75;;;22.54;30.20
6506;BME280;3286;49.858;8.768;2023-05-01T11:29:48;98977.84;;;23.09;28.04
6506;BME280;3286;49.858;8.768;2023-05-01T11:32:18;98973.28;;;22.14;29.47
6506;BME280;3286;49.858;8.768;2023-05-01T11:34:45;98979.41;;;22.69;29.50
6506;BME280;3286;49.858;8.768;2023-05-01T11:37:12;98972.28;;;22.51;29.56
6506;BME280;3286;49.858;8.768;2023-05-01T11:39:47;98972.50;;;22.38;30.60
6506;BME280;3286;49.858;8.768;2023-05-01T11:42:13;98972.28;;;21.24;30.17
6506;BME280;3286;49.858;8.768;2023-05-01T11:44:40;98968.09;;;22.01;29.54
6506;BME280;3286;49.858;8.768;2023-05-01T11:47:08;98964.66;;;22.48;29.24
6506;BME280;3286;49.858;8.768;2023-05-01T11:49:34;98974.41;;;21.83;31.57
6506;BME280;3286;49.858;8.768;2023-05-01T11:52:01;98967.41;;;22.06;29.54
6506;BME280;3286;49.858;8.768;2023-05-01T11:54:28;98971.13;;;21.93;29.57
6506;BME280;3286;49.858;8.768;2023-05-01T11:56:59;98971.34;;;21.49;29.10
6506;BME280;3286;49.858;8.768;2023-05-01T11:59:26;98963.91;;;21.63;29.54
6506;BME280;3286;49.858;8.768;2023-05-01T12:01:53;98964.78;;;22.77;27.64
6506;BME280;3286;49.858;8.768;2023-05-01T12:04:25;98953.34;;;23.52;27.25
6506;BME280;3286;49.858;8.768;2023-05-01T12:06:52;98951.75;;;23.39;27.85
6506;BME280;3286;49.858;8.768;2023-05-01T12:09:20;98954.13;;;23.52;27.44
6506;BME280;3286;49.858;8.768;2023-05-01T12:11:48;98953.72;;;22.91;29.75
6506;BME280;3286;49.858;8.768;2023-05-01T12:14:17;98950.53;;;23.06;30.03
6506;BME280;3286;49.858;8.768;2023-05-01T12:16:44;98955.88;;;22.05;30.32
6506;BME280;3286;49.858;8.768;2023-05-01T12:19:12;98958.13;;;22.68;28.76
6506;BME280;3286;49.858;8.768;2023-05-01T12:21:41;98955.91;;;20.51;31.72
6506;BME280;3286;49.858;8.768;2023-05-01T12:24:09;98959.66;;;19.99;31.88
6506;BME280;3286;49.858;8.768;2023-05-01T12:26:36;98958.78;;;20.31;31.59
6506;BME280;3286;49.858;8.768;2023-05-01T12:29:04;98956.13;;;21.42;31.07
6506;BME280;3286;49.858;8.768;2023-05-01T12:31:31;98958.47;;;21.69;29.82
6506;BME280;3286;49.858;8.768;2023-05-01T12:34:01;98964.97;;;22.04;30.40
6506;BME280;3286;49.858;8.768;2023-05-01T12:36:29;98959.72;;;22.09;28.52
6506;BME280;3286;49.858;8.768;2023-05-01T12:38:59;98960.72;;;21.84;29.23
6506;BME280;3286;49.858;8.768;2023-05-01T12:41:34;98960.66;;;21.11;30.66
6506;BME280;3286;49.858;8.768;2023-05-01T12:44:01;98963.34;;;22.27;29.72
6506;BME280;3286;49.858;8.768;2023-05-01T12:46:28;98955.56;;;21.22;29.69
6506;BME280;3286;49.858;8.768;2023-05-01T12:48:56;98956.75;;;21.99;30.02
6506;BME280;3286;49.858;8.768;2023-05-01T12:51:23;98952.13;;;22.06;30.45
6506;BME280;3286;49.858;8.768;2023-05-01T12:53:52;98945.25;;;22.58;29.79
6506;BME280;3286;49.858;8.768;2023-05-01T12:56:23;98952.00;;;22.13;29.54
6506;BME280;3286;49.858;8.768;2023-05-01T12:58:51;98954.03;;;21.75;28.85
6506;BME280;3286;49.858;8.768;2023-05-01T13:01:23;98960.78;;;20.61;30.36
6506;BME280;3286;49.858;8.768;2023-05-01T13:03:51;98952.56;;;20.81;30.72
6506;BME280;3286;49.858;8.768;2023-05-01T13:06:19;98950.50;;;20.95;29.69
6506;BME280;3286;49.858;8.768;2023-05-01T13:08:45;98950.94;;;20.29;31.00
6506;BME280;3286;49.858;8.768;2023-05-01T13:11:13;98947.19;;;20.55;31.85
6506;BME280;3286;49.858;8.768;2023-05-01T13:13:43;98946.50;;;20.86;32.53
6506;BME280;3286;49.858;8.768;2023-05-01T13:16:11;98944.06;;;20.59;32.01
6506;BME280;3286;49.858;8.768;2023-05-01T13:18:42;98941.56;;;20.64;31.92
6506;BME280;3286;49.858;8.768;2023-05-01T13:21:11;98935.81;;;20.79;31.26
6506;BME280;3286;49.858;8.768;2023-05-01T13:23:39;98935.44;;;20.94;32.26
6506;BME280;3286;49.858;8.768;2023-05-01T13:26:07;98938.50;;;20.97;31.79
6506;BME280;3286;49.858;8.768;2023-05-01T13:28:35;98934.13;;;21.03;32.55
6506;BME280;3286;49.858;8.768;2023-05-01T13:31:09;98932.88;;;21.18;32.25
6506;BME280;3286;49.858;8.768;2023-05-01T13:33:38;98933.34;;;20.96;31.21
6506;BME280;3286;49.858;8.768;2023-05-01T13:36:06;98935.78;;;20.60;31.07
6506;BME280;3286;49.858;8.768;2023-05-01T13:38:40;98944.97;;;20.71;30.91